sensor_id;sensor_type;location;lat;lon;timestamp;P1;durP1;ratioP1;P2;durP2;ratioP2
21621;SDS011;10973;46.706;12.340;2022-07-29T00:01:07;5.27;;;4.87;;
21621;SDS011;10973;46.706;12.340;2022-07-29T00:03:45;5.70;;;5.20;;
21621;SDS011;10973;46.706;12.340;2022-07-29T00:06:14;6.20;;;5.70;;
21621;SDS011;10973;46.706;12.340;2022-07-29T00:08:42;5.87;;;5.40;;
21621;SDS011;10973;46.706;12.340;2022-07-29T00:11:09;5.33;;;4.90;;
21621;SDS011;10973;46.706;12.340;2022-07-29T00:13:37;4.20;;;3.90;;
21621;SDS011;10973;46.706;12.340;2022-07-29T00:16:04;4.47;;;4.17;;
21621;SDS011;10973;46.706;12.340;2022-07-29T00:18:32;5.27;;;4.87;;
21621;SDS011;10973;46.706;12.340;2022-07-29T00:20:59;5.07;;;4.67;;
21621;SDS011;10973;46.706;12.340;2022-07-29T00:23:26;5.03;;;4.63;;
21621;SDS011;10973;46.706;12.340;2022-07-29T00:25:55;5.87;;;4.73;;
21621;SDS011;10973;46.706;12.340;2022-07-29T00:28:22;5.07;;;3.87;;
21621;SDS011;10973;46.706;12.340;2022-07-29T00:30:49;4.53;;;4.23;;
21621;SDS011;10973;46.706;12.340;2022-07-29T00:33:16;4.63;;;4.33;;
21621;SDS011;10973;46.706;12.340;2022-07-29T00:35:44;4.37;;;4.07;;
21621;SDS011;10973;46.706;12.340;2022-07-29T00:38:11;4.83;;;4.53;;
21621;SDS011;10973;46.706;12.340;2022-07-29T00:40:42;4.80;;;4.50;;
21621;SDS011;10973;46.706;12.340;2022-07-29T00:43:10;4.63;;;4.30;;
21621;SDS011;10973;46.706;12.340;2022-07-29T00:45:40;4.83;;;4.53;;
21621;SDS011;10973;46.706;12.340;2022-07-29T00:48:08;5.37;;;4.97;;
21621;SDS011;10973;46.706;12.340;2022-07-29T00:50:36;5.10;;;4.70;;
21621;SDS011;10973;46.706;12.340;2022-07-29T00:53:06;5.23;;;4.73;;
21621;SDS011;10973;46.706;12.340;2022-07-29T00:55:34;6.10;;;4.80;;
21621;SDS011;10973;46.706;12.340;2022-07-29T00:58:02;4.90;;;4.53;;
21621;SDS011;10973;46.706;12.340;2022-07-29T01:00:30;4.53;;;4.23;;
21621;SDS011;10973;46.706;12.340;2022-07-29T01:02:57;4.37;;;4.17;;
21621;SDS011;10973;46.706;12.340;2022-07-29T01:05:26;4.73;;;4.43;;
21621;SDS011;10973;46.706;12.340;2022-07-29T01:08:15;4.30;;;4.10;;
21621;SDS011;10973;46.706;12.340;2022-07-29T01:10:43;5.10;;;4.70;;
21621;SDS011;10973;46.706;12.340;2022-07-29T01:13:12;4.20;;;3.90;;
21621;SDS011;10973;46.706;12.340;2022-07-29T01:15:52;4.13;;;3.87;;
21621;SDS011;10973;46.706;12.340;2022-07-29T01:18:31;3.93;;;2.93;;
21621;SDS011;10973;46.706;12.340;2022-07-29T01:21:23;2.30;;;2.20;;
21621;SDS011;10973;46.706;12.340;2022-07-29T01:30:24;1.50;;;1.40;;
21621;SDS011;10973;46.706;12.340;2022-07-29T01:32:54;4.50;;;1.60;;
21621;SDS011;10973;46.706;12.340;2022-07-29T01:35:32;3.67;;;2.07;;
21621;SDS011;10973;46.706;12.340;2022-07-29T01:38:27;1.90;;;1.80;;
21621;SDS011;10973;46.706;12.340;2022-07-29T01:40:59;1.87;;;1.70;;
21621;SDS011;10973;46.706;12.340;2022-07-29T01:43:34;1.43;;;1.37;;
21621;SDS011;10973;46.706;12.340;2022-07-29T01:46:12;2.00;;;1.43;;
21621;SDS011;10973;46.706;12.340;2022-07-29T01:48:59;1.50;;;1.40;;
21621;SDS011;10973;46.706;12.340;2022-07-29T01:51:41;1.57;;;1.47;;
21621;SDS011;10973;46.706;12.340;2022-07-29T01:56:53;1.77;;;1.50;;
21621;SDS011;10973;46.706;12.340;2022-07-29T01:59:25;1.50;;;1.50;;
21621;SDS011;10973;46.706;12.340;2022-07-29T02:01:53;1.63;;;1.57;;
21621;SDS011;10973;46.706;12.340;2022-07-29T02:04:23;1.60;;;1.60;;
21621;SDS011;10973;46.706;12.340;2022-07-29T02:06:57;1.80;;;1.70;;
21621;SDS011;10973;46.706;12.340;2022-07-29T02:09:29;1.90;;;1.80;;
21621;SDS011;10973;46.706;12.340;2022-07-29T02:12:00;1.70;;;1.60;;
21621;SDS011;10973;46.706;12.340;2022-07-29T02:14:31;2.00;;;1.80;;
21621;SDS011;10973;46.706;12.340;2022-07-29T02:17:04;1.90;;;1.80;;
21621;SDS011;10973;46.706;12.340;2022-07-29T02:19:32;2.03;;;1.93;;
21621;SDS011;10973;46.706;12.340;2022-07-29T02:22:03;1.93;;;1.83;;
21621;SDS011;10973;46.706;12.340;2022-07-29T02:24:33;2.20;;;2.00;;
21621;SDS011;10973;46.706;12.340;2022-07-29T02:27:04;2.00;;;1.90;;
21621;SDS011;10973;46.706;12.340;2022-07-29T02:29:34;2.47;;;2.10;;
21621;SDS011;10973;46.706;12.340;2022-07-29T02:32:03;1.93;;;1.83;;
21621;SDS011;10973;46.706;12.340;2022-07-29T02:34:34;1.77;;;1.67;;
21621;SDS011;10973;46.706;12.340;2022-07-29T02:37:04;1.87;;;1.73;;
21621;SDS011;10973;46.706;12.340;2022-07-29T02:39:34;2.10;;;1.90;;
21621;SDS011;10973;46.706;12.340;2022-07-29T02:42:05;1.80;;;1.70;;
21621;SDS011;10973;46.706;12.340;2022-07-29T02:44:38;2.00;;;1.90;;
21621;SDS011;10973;46.706;12.340;2022-07-29T02:47:20;2.53;;;2.10;;
21621;SDS011;10973;46.706;12.340;2022-07-29T02:50:17;2.00;;;1.90;;
21621;SDS011;10973;46.706;12.340;2022-07-29T02:52:57;1.97;;;1.87;;
21621;SDS011;10973;46.706;12.340;2022-07-29T02:55:56;2.37;;;2.17;;
21621;SDS011;10973;46.706;12.340;2022-07-29T02:58:31;1.90;;;1.80;;
21621;SDS011;10973;46.706;12.340;2022-07-29T03:01:15;2.17;;;2.07;;
21621;SDS011;10973;46.706;12.340;2022-07-29T03:03:52;2.40;;;2.00;;
21621;SDS011;10973;46.706;12.340;2022-07-29T03:06:22;2.27;;;2.07;;
21621;SDS011;10973;46.706;12.340;2022-07-29T03:09:04;1.90;;;1.80;;
21621;SDS011;10973;46.706;12.340;2022-07-29T03:11:39;1.90;;;1.80;;
21621;SDS011;10973;46.706;12.340;2022-07-29T03:14:16;2.30;;;2.10;;
21621;SDS011;10973;46.706;12.340;2022-07-29T03:16:46;2.13;;;2.03;;
21621;SDS011;10973;46.706;12.340;2022-07-29T03:19:15;1.93;;;1.83;;
21621;SDS011;10973;46.706;12.340;2022-07-29T03:21:43;2.27;;;2.17;;
21621;SDS011;10973;46.706;12.340;2022-07-29T03:24:23;1.83;;;1.73;;
21621;SDS011;10973;46.706;12.340;2022-07-29T03:26:56;1.90;;;1.80;;
21621;SDS011;10973;46.706;12.340;2022-07-29T03:29:25;2.33;;;2.00;;
21621;SDS011;10973;46.706;12.340;2022-07-29T03:32:00;2.20;;;2.00;;
21621;SDS011;10973;46.706;12.340;2022-07-29T03:34:34;2.03;;;1.93;;
21621;SDS011;10973;46.706;12.340;2022-07-29T03:37:03;2.17;;;1.97;;
21621;SDS011;10973;46.706;12.340;2022-07-29T03:39:33;2.50;;;2.03;;
21621;SDS011;10973;46.706;12.340;2022-07-29T03:42:06;2.30;;;1.83;;
21621;SDS011;10973;46.706;12.340;2022-07-29T03:44:40;2.20;;;2.10;;
21621;SDS011;10973;46.706;12.340;2022-07-29T03:47:11;7.10;;;5.23;;
21621;SDS011;10973;46.706;12.340;2022-07-29T03:49:42;8.83;;;6.97;;
21621;SDS011;10973;46.706;12.340;2022-07-29T03:52:13;8.13;;;6.67;;
21621;SDS011;10973;46.706;12.340;2022-07-29T03:54:41;6.47;;;5.87;;
21621;SDS011;10973;46.706;12.340;2022-07-29T03:57:09;8.23;;;5.97;;
21621;SDS011;10973;46.706;12.340;2022-07-29T03:59:38;4.77;;;4.37;;
21621;SDS011;10973;46.706;12.340;2022-07-29T04:02:08;6.10;;;3.87;;
21621;SDS011;10973;46.706;12.340;2022-07-29T04:04:40;4.27;;;3.90;;
21621;SDS011;10973;46.706;12.340;2022-07-29T04:07:11;4.90;;;3.77;;
21621;SDS011;10973;46.706;12.340;2022-07-29T04:09:40;5.40;;;4.77;;
21621;SDS011;10973;46.706;12.340;2022-07-29T04:12:08;4.30;;;3.97;;
21621;SDS011;10973;46.706;12.340;2022-07-29T04:14:36;6.03;;;5.43;;
21621;SDS011;10973;46.706;12.340;2022-07-29T04:17:03;6.10;;;5.50;;
21621;SDS011;10973;46.706;12.340;2022-07-29T04:19:31;5.00;;;4.60;;
21621;SDS011;10973;46.706;12.340;2022-07-29T04:21:59;3.10;;;2.90;;
21621;SDS011;10973;46.706;12.340;2022-07-29T04:24:27;3.00;;;2.80;;
21621;SDS011;10973;46.706;12.340;2022-07-29T04:26:55;3.00;;;2.80;;
21621;SDS011;10973;46.706;12.340;2022-07-29T04:29:22;3.10;;;3.00;;
21621;SDS011;10973;46.706;12.340;2022-07-29T04:31:49;3.03;;;2.90;;
21621;SDS011;10973;46.706;12.340;2022-07-29T04:34:16;4.47;;;3.07;;
21621;SDS011;10973;46.706;12.340;2022-07-29T04:36:45;3.67;;;3.37;;
21621;SDS011;10973;46.706;12.340;2022-07-29T04:39:12;3.50;;;3.30;;
21621;SDS011;10973;46.706;12.340;2022-07-29T04:41:46;4.10;;;3.80;;
21621;SDS011;10973;46.706;12.340;2022-07-29T04:44:13;4.53;;;2.90;;
21621;SDS011;10973;46.706;12.340;2022-07-29T04:46:42;3.63;;;3.40;;
21621;SDS011;10973;46.706;12.340;2022-07-29T04:49:09;3.17;;;2.87;;
21621;SDS011;10973;46.706;12.340;2022-07-29T04:51:37;3.20;;;2.90;;
21621;SDS011;10973;46.706;12.340;2022-07-29T04:54:04;3.37;;;3.17;;
21621;SDS011;10973;46.706;12.340;2022-07-29T04:56:31;3.97;;;3.77;;
21621;SDS011;10973;46.706;12.340;2022-07-29T04:58:59;3.37;;;3.17;;
21621;SDS011;10973;46.706;12.340;2022-07-29T05:01:26;3.17;;;2.97;;
21621;SDS011;10973;46.706;12.340;2022-07-29T05:03:53;2.90;;;2.67;;
21621;SDS011;10973;46.706;12.340;2022-07-29T05:06:25;3.63;;;3.37;;
21621;SDS011;10973;46.706;12.340;2022-07-29T05:08:53;3.30;;;3.10;;
21621;SDS011;10973;46.706;12.340;2022-07-29T05:11:20;3.10;;;2.90;;
21621;SDS011;10973;46.706;12.340;2022-07-29T05:13:52;2.77;;;2.67;;
21621;SDS011;10973;46.706;12.340;2022-07-29T05:16:19;3.20;;;3.00;;
21621;SDS011;10973;46.706;12.340;2022-07-29T05:18:47;2.93;;;2.73;;
21621;SDS011;10973;46.706;12.340;2022-07-29T05:21:14;2.80;;;2.60;;
21621;SDS011;10973;46.706;12.340;2022-07-29T05:23:42;3.20;;;2.90;;
21621;SDS011;10973;46.706;12.340;2022-07-29T05:26:09;2.73;;;2.53;;
21621;SDS011;10973;46.706;12.340;2022-07-29T05:28:37;3.13;;;2.97;;
21621;SDS011;10973;46.706;12.340;2022-07-29T05:31:04;3.07;;;2.87;;
21621;SDS011;10973;46.706;12.340;2022-07-29T05:33:31;3.03;;;2.83;;
21621;SDS011;10973;46.706;12.340;2022-07-29T05:36:05;2.73;;;2.63;;
21621;SDS011;10973;46.706;12.340;2022-07-29T05:38:34;2.70;;;2.60;;
21621;SDS011;10973;46.706;12.340;2022-07-29T05:41:02;2.90;;;2.70;;
21621;SDS011;10973;46.706;12.340;2022-07-29T05:43:31;2.97;;;2.77;;
21621;SDS011;10973;46.706;12.340;2022-07-29T05:45:58;2.60;;;2.50;;
21621;SDS011;10973;46.706;12.340;2022-07-29T05:48:26;2.80;;;2.60;;
21621;SDS011;10973;46.706;12.340;2022-07-29T05:50:54;2.37;;;2.27;;
21621;SDS011;10973;46.706;12.340;2022-07-29T05:53:21;2.57;;;2.47;;
21621;SDS011;10973;46.706;12.340;2022-07-29T05:55:49;2.87;;;2.63;;
21621;SDS011;10973;46.706;12.340;2022-07-29T05:58:17;2.57;;;2.47;;
21621;SDS011;10973;46.706;12.340;2022-07-29T06:00:44;2.60;;;2.40;;
21621;SDS011;10973;46.706;12.340;2022-07-29T06:03:12;2.63;;;2.43;;
21621;SDS011;10973;46.706;12.340;2022-07-29T06:05:39;3.57;;;2.33;;
21621;SDS011;10973;46.706;12.340;2022-07-29T06:08:06;2.67;;;2.47;;
21621;SDS011;10973;46.706;12.340;2022-07-29T06:10:37;2.23;;;2.13;;
21621;SDS011;10973;46.706;12.340;2022-07-29T06:13:04;2.50;;;2.30;;
21621;SDS011;10973;46.706;12.340;2022-07-29T06:15:31;2.27;;;2.17;;
21621;SDS011;10973;46.706;12.340;2022-07-29T06:17:59;3.57;;;2.50;;
21621;SDS011;10973;46.706;12.340;2022-07-29T06:20:30;2.90;;;2.70;;
21621;SDS011;10973;46.706;12.340;2022-07-29T06:22:58;2.40;;;2.30;;
21621;SDS011;10973;46.706;12.340;2022-07-29T06:25:26;2.47;;;2.37;;
21621;SDS011;10973;46.706;12.340;2022-07-29T06:27:54;2.20;;;2.10;;
21621;SDS011;10973;46.706;12.340;2022-07-29T06:30:21;2.63;;;2.17;;
21621;SDS011;10973;46.706;12.340;2022-07-29T06:32:48;2.73;;;2.47;;
21621;SDS011;10973;46.706;12.340;2022-07-29T06:35:16;2.50;;;2.30;;
21621;SDS011;10973;46.706;12.340;2022-07-29T06:38:03;2.33;;;2.23;;
21621;SDS011;10973;46.706;12.340;2022-07-29T06:40:50;2.60;;;2.40;;
21621;SDS011;10973;46.706;12.340;2022-07-29T06:43:18;2.27;;;2.17;;
21621;SDS011;10973;46.706;12.340;2022-07-29T06:45:45;2.40;;;2.30;;
21621;SDS011;10973;46.706;12.340;2022-07-29T06:48:12;2.60;;;2.50;;
21621;SDS011;10973;46.706;12.340;2022-07-29T06:50:39;2.43;;;2.33;;
21621;SDS011;10973;46.706;12.340;2022-07-29T06:53:06;2.83;;;2.60;;
21621;SDS011;10973;46.706;12.340;2022-07-29T06:55:34;2.50;;;2.40;;
21621;SDS011;10973;46.706;12.340;2022-07-29T06:58:01;2.60;;;2.50;;
21621;SDS011;10973;46.706;12.340;2022-07-29T07:00:28;2.40;;;2.30;;
21621;SDS011;10973;46.706;12.340;2022-07-29T07:02:55;2.47;;;2.37;;
21621;SDS011;10973;46.706;12.340;2022-07-29T07:05:22;2.43;;;2.33;;
21621;SDS011;10973;46.706;12.340;2022-07-29T07:07:50;2.20;;;2.10;;
21621;SDS011;10973;46.706;12.340;2022-07-29T07:10:18;2.60;;;2.40;;
21621;SDS011;10973;46.706;12.340;2022-07-29T07:12:45;2.30;;;2.20;;
21621;SDS011;10973;46.706;12.340;2022-07-29T07:15:12;2.57;;;2.37;;
21621;SDS011;10973;46.706;12.340;2022-07-29T07:17:39;2.53;;;2.37;;
21621;SDS011;10973;46.706;12.340;2022-07-29T07:20:07;2.47;;;2.37;;
21621;SDS011;10973;46.706;12.340;2022-07-29T07:22:34;2.40;;;2.30;;
21621;SDS011;10973;46.706;12.340;2022-07-29T07:25:04;2.43;;;2.30;;
21621;SDS011;10973;46.706;12.340;2022-07-29T07:27:32;2.20;;;2.10;;
21621;SDS011;10973;46.706;12.340;2022-07-29T07:29:59;2.23;;;2.10;;
21621;SDS011;10973;46.706;12.340;2022-07-29T07:32:34;2.30;;;2.20;;
21621;SDS011;10973;46.706;12.340;2022-07-29T07:35:05;2.20;;;2.10;;
21621;SDS011;10973;46.706;12.340;2022-07-29T07:37:35;2.70;;;2.50;;
21621;SDS011;10973;46.706;12.340;2022-07-29T07:40:03;2.57;;;2.47;;
21621;SDS011;10973;46.706;12.340;2022-07-29T07:42:31;2.30;;;2.20;;
21621;SDS011;10973;46.706;12.340;2022-07-29T07:44:58;2.37;;;2.27;;
21621;SDS011;10973;46.706;12.340;2022-07-29T07:47:42;2.40;;;2.30;;
21621;SDS011;10973;46.706;12.340;2022-07-29T07:50:10;2.27;;;2.17;;
21621;SDS011;10973;46.706;12.340;2022-07-29T07:52:48;2.57;;;2.47;;
21621;SDS011;10973;46.706;12.340;2022-07-29T07:55:18;2.40;;;2.30;;
21621;SDS011;10973;46.706;12.340;2022-07-29T07:57:47;2.33;;;2.20;;
21621;SDS011;10973;46.706;12.340;2022-07-29T08:00:15;2.20;;;2.10;;
21621;SDS011;10973;46.706;12.340;2022-07-29T08:02:43;2.70;;;2.50;;
21621;SDS011;10973;46.706;12.340;2022-07-29T08:05:10;2.20;;;2.13;;
21621;SDS011;10973;46.706;12.340;2022-07-29T08:07:39;2.50;;;2.40;;
21621;SDS011;10973;46.706;12.340;2022-07-29T08:10:06;2.30;;;2.20;;
21621;SDS011;10973;46.706;12.340;2022-07-29T08:12:34;2.30;;;2.20;;
21621;SDS011;10973;46.706;12.340;2022-07-29T08:15:01;2.53;;;2.40;;
21621;SDS011;10973;46.706;12.340;2022-07-29T08:17:29;2.30;;;2.13;;
21621;SDS011;10973;46.706;12.340;2022-07-29T08:20:00;3.13;;;2.20;;
21621;SDS011;10973;46.706;12.340;2022-07-29T08:22:28;2.83;;;2.23;;
21621;SDS011;10973;46.706;12.340;2022-07-29T08:24:56;2.30;;;2.07;;
21621;SDS011;10973;46.706;12.340;2022-07-29T08:27:23;2.03;;;1.93;;
21621;SDS011;10973;46.706;12.340;2022-07-29T08:30:10;2.50;;;2.40;;
21621;SDS011;10973;46.706;12.340;2022-07-29T08:32:38;2.20;;;2.10;;
21621;SDS011;10973;46.706;12.340;2022-07-29T08:35:22;2.50;;;2.40;;
21621;SDS011;10973;46.706;12.340;2022-07-29T08:37:51;2.43;;;2.33;;
21621;SDS011;10973;46.706;12.340;2022-07-29T08:40:19;2.30;;;2.20;;
21621;SDS011;10973;46.706;12.340;2022-07-29T08:42:58;2.20;;;2.10;;
21621;SDS011;10973;46.706;12.340;2022-07-29T08:45:46;2.53;;;2.43;;
21621;SDS011;10973;46.706;12.340;2022-07-29T08:48:18;2.23;;;2.13;;
21621;SDS011;10973;46.706;12.340;2022-07-29T08:50:48;2.37;;;2.27;;
21621;SDS011;10973;46.706;12.340;2022-07-29T08:53:21;2.20;;;2.10;;
21621;SDS011;10973;46.706;12.340;2022-07-29T08:55:53;2.20;;;2.10;;
21621;SDS011;10973;46.706;12.340;2022-07-29T08:58:21;2.40;;;2.30;;
21621;SDS011;10973;46.706;12.340;2022-07-29T09:00:52;3.37;;;2.17;;
21621;SDS011;10973;46.706;12.340;2022-07-29T09:03:24;2.30;;;2.10;;
21621;SDS011;10973;46.706;12.340;2022-07-29T09:05:57;2.33;;;2.07;;
21621;SDS011;10973;46.706;12.340;2022-07-29T09:08:25;2.13;;;2.03;;
21621;SDS011;10973;46.706;12.340;2022-07-29T09:10:54;2.00;;;1.90;;
21621;SDS011;10973;46.706;12.340;2022-07-29T09:13:22;2.00;;;1.90;;
21621;SDS011;10973;46.706;12.340;2022-07-29T09:15:49;2.15;;;1.98;;
21621;SDS011;10973;46.706;12.340;2022-07-29T09:18:39;2.20;;;2.10;;
21621;SDS011;10973;46.706;12.340;2022-07-29T09:21:10;1.90;;;1.90;;
21621;SDS011;10973;46.706;12.340;2022-07-29T09:23:39;2.00;;;1.95;;
21621;SDS011;10973;46.706;12.340;2022-07-29T09:26:06;1.70;;;1.70;;
21621;SDS011;10973;46.706;12.340;2022-07-29T09:28:33;2.20;;;2.10;;
21621;SDS011;10973;46.706;12.340;2022-07-29T09:31:08;1.90;;;1.77;;
21621;SDS011;10973;46.706;12.340;2022-07-29T09:33:36;2.05;;;1.95;;
21621;SDS011;10973;46.706;12.340;2022-07-29T09:36:04;1.97;;;1.87;;
21621;SDS011;10973;46.706;12.340;2022-07-29T09:38:34;2.13;;;1.93;;
21621;SDS011;10973;46.706;12.340;2022-07-29T09:41:03;1.80;;;1.70;;
21621;SDS011;10973;46.706;12.340;2022-07-29T09:43:32;2.10;;;2.00;;
21621;SDS011;10973;46.706;12.340;2022-07-29T09:46:09;2.10;;;2.00;;
21621;SDS011;10973;46.706;12.340;2022-07-29T09:48:38;2.85;;;1.90;;
21621;SDS011;10973;46.706;12.340;2022-07-29T09:51:16;2.20;;;2.10;;
21621;SDS011;10973;46.706;12.340;2022-07-29T09:53:55;2.22;;;2.13;;
21621;SDS011;10973;46.706;12.340;2022-07-29T09:56:38;2.15;;;2.05;;
21621;SDS011;10973;46.706;12.340;2022-07-29T09:59:09;2.53;;;2.33;;
21621;SDS011;10973;46.706;12.340;2022-07-29T10:01:36;2.10;;;2.00;;
21621;SDS011;10973;46.706;12.340;2022-07-29T10:04:03;6.47;;;1.98;;
21621;SDS011;10973;46.706;12.340;2022-07-29T10:06:31;2.15;;;2.05;;
21621;SDS011;10973;46.706;12.340;2022-07-29T10:09:08;1.70;;;1.65;;
21621;SDS011;10973;46.706;12.340;2022-07-29T10:11:36;1.80;;;1.80;;
21621;SDS011;10973;46.706;12.340;2022-07-29T10:14:15;1.90;;;1.90;;
21621;SDS011;10973;46.706;12.340;2022-07-29T10:16:42;1.85;;;1.75;;
21621;SDS011;10973;46.706;12.340;2022-07-29T10:19:10;1.80;;;1.70;;
21621;SDS011;10973;46.706;12.340;2022-07-29T10:21:40;1.60;;;1.60;;
21621;SDS011;10973;46.706;12.340;2022-07-29T10:24:07;2.40;;;2.20;;
21621;SDS011;10973;46.706;12.340;2022-07-29T10:26:40;4.82;;;1.92;;
21621;SDS011;10973;46.706;12.340;2022-07-29T10:29:08;1.73;;;1.73;;
21621;SDS011;10973;46.706;12.340;2022-07-29T10:32:15;2.45;;;1.83;;
21621;SDS011;10973;46.706;12.340;2022-07-29T10:43:22;1.90;;;1.77;;
21621;SDS011;10973;46.706;12.340;2022-07-29T10:45:57;2.15;;;2.05;;
21621;SDS011;10973;46.706;12.340;2022-07-29T10:48:27;1.98;;;1.88;;
21621;SDS011;10973;46.706;12.340;2022-07-29T10:53:47;2.00;;;1.90;;
21621;SDS011;10973;46.706;12.340;2022-07-29T10:56:28;2.10;;;1.85;;
21621;SDS011;10973;46.706;12.340;2022-07-29T11:01:47;1.80;;;1.80;;
21621;SDS011;10973;46.706;12.340;2022-07-29T11:07:09;2.15;;;2.05;;
21621;SDS011;10973;46.706;12.340;2022-07-29T11:09:40;2.00;;;1.90;;
21621;SDS011;10973;46.706;12.340;2022-07-29T11:15:04;1.70;;;1.70;;
21621;SDS011;10973;46.706;12.340;2022-07-29T11:20:32;2.22;;;2.00;;
21621;SDS011;10973;46.706;12.340;2022-07-29T11:28:39;1.60;;;1.50;;
21621;SDS011;10973;46.706;12.340;2022-07-29T11:34:23;1.70;;;1.60;;
21621;SDS011;10973;46.706;12.340;2022-07-29T11:39:35;1.80;;;1.60;;
21621;SDS011;10973;46.706;12.340;2022-07-29T11:47:56;1.80;;;1.70;;
21621;SDS011;10973;46.706;12.340;2022-07-29T11:50:45;1.35;;;1.35;;
21621;SDS011;10973;46.706;12.340;2022-07-29T11:53:14;2.05;;;1.95;;
21621;SDS011;10973;46.706;12.340;2022-07-29T11:55:41;1.65;;;1.33;;
21621;SDS011;10973;46.706;12.340;2022-07-29T11:58:21;1.38;;;1.38;;
21621;SDS011;10973;46.706;12.340;2022-07-29T12:00:51;1.33;;;1.33;;
21621;SDS011;10973;46.706;12.340;2022-07-29T12:03:28;1.40;;;1.40;;
21621;SDS011;10973;46.706;12.340;2022-07-29T12:06:02;1.52;;;1.52;;
21621;SDS011;10973;46.706;12.340;2022-07-29T12:09:06;1.40;;;1.40;;
21621;SDS011;10973;46.706;12.340;2022-07-29T12:11:40;2.00;;;1.80;;
21621;SDS011;10973;46.706;12.340;2022-07-29T12:14:28;3.47;;;2.00;;
21621;SDS011;10973;46.706;12.340;2022-07-29T12:16:59;1.77;;;1.67;;
21621;SDS011;10973;46.706;12.340;2022-07-29T12:19:27;1.50;;;1.50;;
21621;SDS011;10973;46.706;12.340;2022-07-29T12:21:56;1.50;;;1.50;;
21621;SDS011;10973;46.706;12.340;2022-07-29T12:24:26;1.70;;;1.60;;
21621;SDS011;10973;46.706;12.340;2022-07-29T12:27:10;1.70;;;1.60;;
21621;SDS011;10973;46.706;12.340;2022-07-29T12:29:39;1.80;;;1.70;;
21621;SDS011;10973;46.706;12.340;2022-07-29T12:32:13;2.10;;;1.95;;
21621;SDS011;10973;46.706;12.340;2022-07-29T12:34:45;1.80;;;1.70;;
21621;SDS011;10973;46.706;12.340;2022-07-29T12:37:13;1.52;;;1.52;;
21621;SDS011;10973;46.706;12.340;2022-07-29T12:39:40;2.00;;;1.90;;
21621;SDS011;10973;46.706;12.340;2022-07-29T12:42:12;1.98;;;1.80;;
21621;SDS011;10973;46.706;12.340;2022-07-29T12:44:48;2.00;;;1.90;;
21621;SDS011;10973;46.706;12.340;2022-07-29T12:47:17;1.90;;;1.80;;
21621;SDS011;10973;46.706;12.340;2022-07-29T12:49:46;1.95;;;1.77;;
21621;SDS011;10973;46.706;12.340;2022-07-29T12:52:27;1.60;;;1.60;;
21621;SDS011;10973;46.706;12.340;2022-07-29T12:54:55;2.60;;;1.90;;
21621;SDS011;10973;46.706;12.340;2022-07-29T12:57:23;2.00;;;1.80;;
21621;SDS011;10973;46.706;12.340;2022-07-29T13:02:56;1.85;;;1.77;;
21621;SDS011;10973;46.706;12.340;2022-07-29T13:05:43;2.10;;;2.00;;
21621;SDS011;10973;46.706;12.340;2022-07-29T13:08:15;1.80;;;1.80;;
21621;SDS011;10973;46.706;12.340;2022-07-29T13:10:48;1.95;;;1.90;;
21621;SDS011;10973;46.706;12.340;2022-07-29T13:13:15;1.85;;;1.85;;
21621;SDS011;10973;46.706;12.340;2022-07-29T13:15:43;2.00;;;2.00;;
21621;SDS011;10973;46.706;12.340;2022-07-29T13:18:31;1.80;;;1.80;;
21621;SDS011;10973;46.706;12.340;2022-07-29T13:21:11;1.70;;;1.70;;
21621;SDS011;10973;46.706;12.340;2022-07-29T13:23:44;2.00;;;1.90;;
21621;SDS011;10973;46.706;12.340;2022-07-29T13:26:11;3.17;;;2.30;;
21621;SDS011;10973;46.706;12.340;2022-07-29T13:28:38;2.05;;;1.85;;
21621;SDS011;10973;46.706;12.340;2022-07-29T13:31:09;2.20;;;2.00;;
21621;SDS011;10973;46.706;12.340;2022-07-29T13:33:37;2.05;;;1.95;;
21621;SDS011;10973;46.706;12.340;2022-07-29T13:36:04;2.15;;;2.05;;
21621;SDS011;10973;46.706;12.340;2022-07-29T13:38:31;1.92;;;1.92;;
21621;SDS011;10973;46.706;12.340;2022-07-29T13:41:01;2.20;;;2.10;;
21621;SDS011;10973;46.706;12.340;2022-07-29T13:43:28;2.13;;;2.03;;
21621;SDS011;10973;46.706;12.340;2022-07-29T13:45:55;2.20;;;2.03;;
21621;SDS011;10973;46.706;12.340;2022-07-29T13:48:23;3.00;;;2.03;;
21621;SDS011;10973;46.706;12.340;2022-07-29T13:50:50;2.30;;;2.20;;
21621;SDS011;10973;46.706;12.340;2022-07-29T13:53:17;2.30;;;2.20;;
21621;SDS011;10973;46.706;12.340;2022-07-29T13:55:52;2.50;;;2.40;;
21621;SDS011;10973;46.706;12.340;2022-07-29T13:58:19;2.28;;;2.17;;
21621;SDS011;10973;46.706;12.340;2022-07-29T14:00:47;2.10;;;2.00;;
21621;SDS011;10973;46.706;12.340;2022-07-29T14:03:14;2.40;;;2.20;;
21621;SDS011;10973;46.706;12.340;2022-07-29T14:05:42;2.28;;;2.13;;
21621;SDS011;10973;46.706;12.340;2022-07-29T14:08:09;2.30;;;1.95;;
21621;SDS011;10973;46.706;12.340;2022-07-29T14:10:36;2.42;;;2.10;;
21621;SDS011;10973;46.706;12.340;2022-07-29T14:13:04;2.17;;;2.08;;
21621;SDS011;10973;46.706;12.340;2022-07-29T14:15:50;2.20;;;2.10;;
21621;SDS011;10973;46.706;12.340;2022-07-29T14:18:17;2.22;;;2.13;;
21621;SDS011;10973;46.706;12.340;2022-07-29T14:20:44;3.58;;;2.10;;
21621;SDS011;10973;46.706;12.340;2022-07-29T14:23:11;5.03;;;2.40;;
21621;SDS011;10973;46.706;12.340;2022-07-29T14:25:41;2.30;;;2.20;;
21621;SDS011;10973;46.706;12.340;2022-07-29T14:28:09;2.30;;;2.20;;
21621;SDS011;10973;46.706;12.340;2022-07-29T14:30:39;2.17;;;2.08;;
21621;SDS011;10973;46.706;12.340;2022-07-29T14:33:07;1.95;;;1.88;;
21621;SDS011;10973;46.706;12.340;2022-07-29T14:35:34;3.30;;;2.40;;
21621;SDS011;10973;46.706;12.340;2022-07-29T14:38:01;2.20;;;2.10;;
21621;SDS011;10973;46.706;12.340;2022-07-29T14:40:29;2.05;;;2.03;;
21621;SDS011;10973;46.706;12.340;2022-07-29T14:42:56;3.65;;;2.13;;
21621;SDS011;10973;46.706;12.340;2022-07-29T14:45:23;2.17;;;1.90;;
21621;SDS011;10973;46.706;12.340;2022-07-29T14:47:51;2.50;;;2.30;;
21621;SDS011;10973;46.706;12.340;2022-07-29T14:50:22;2.10;;;2.00;;
21621;SDS011;10973;46.706;12.340;2022-07-29T14:52:57;2.70;;;2.38;;
21621;SDS011;10973;46.706;12.340;2022-07-29T14:59:07;3.17;;;2.97;;
21621;SDS011;10973;46.706;12.340;2022-07-29T15:01:34;3.00;;;2.80;;
21621;SDS011;10973;46.706;12.340;2022-07-29T15:04:02;3.80;;;3.50;;
21621;SDS011;10973;46.706;12.340;2022-07-29T15:06:29;3.42;;;3.10;;
21621;SDS011;10973;46.706;12.340;2022-07-29T15:08:57;3.03;;;2.83;;
21621;SDS011;10973;46.706;12.340;2022-07-29T15:11:26;2.80;;;2.55;;
21621;SDS011;10973;46.706;12.340;2022-07-29T15:13:53;2.72;;;2.53;;
21621;SDS011;10973;46.706;12.340;2022-07-29T15:16:21;2.50;;;2.38;;
21621;SDS011;10973;46.706;12.340;2022-07-29T15:18:49;2.67;;;2.42;;
21621;SDS011;10973;46.706;12.340;2022-07-29T15:21:19;2.50;;;2.40;;
21621;SDS011;10973;46.706;12.340;2022-07-29T15:23:46;3.10;;;2.85;;
21621;SDS011;10973;46.706;12.340;2022-07-29T15:26:13;8.00;;;6.47;;
21621;SDS011;10973;46.706;12.340;2022-07-29T15:28:41;8.98;;;6.93;;
21621;SDS011;10973;46.706;12.340;2022-07-29T15:31:08;6.32;;;4.10;;
21621;SDS011;10973;46.706;12.340;2022-07-29T15:33:35;4.30;;;3.90;;
21621;SDS011;10973;46.706;12.340;2022-07-29T15:36:02;3.17;;;2.97;;
21621;SDS011;10973;46.706;12.340;2022-07-29T15:38:30;2.95;;;2.83;;
21621;SDS011;10973;46.706;12.340;2022-07-29T15:40:57;3.60;;;2.60;;
21621;SDS011;10973;46.706;12.340;2022-07-29T15:43:25;2.95;;;2.53;;
21621;SDS011;10973;46.706;12.340;2022-07-29T15:45:52;3.03;;;2.83;;
21621;SDS011;10973;46.706;12.340;2022-07-29T15:48:20;3.03;;;2.83;;
21621;SDS011;10973;46.706;12.340;2022-07-29T15:50:47;3.17;;;2.60;;